createdAt,value
2018-12-29T00:01:32.809Z,8.75
2018-12-29T00:04:13.273Z,8.55
2018-12-29T00:06:54.411Z,8.46
2018-12-29T00:09:34.776Z,8.45
2018-12-29T00:12:15.515Z,8.46
2018-12-29T00:14:55.754Z,8.43
2018-12-29T00:17:36.136Z,8.44
2018-12-29T00:20:16.804Z,8.30
2018-12-29T00:22:57.681Z,8.32
2018-12-29T00:25:37.606Z,8.36
2018-12-29T00:28:18.096Z,8.38
2018-12-29T00:30:58.887Z,8.39
2018-12-29T00:33:39.279Z,8.42
2018-12-29T00:36:19.898Z,8.41
2018-12-29T00:39:00.739Z,8.45
2018-12-29T00:41:41.797Z,8.45
2018-12-29T00:44:22.485Z,8.46
2018-12-29T00:47:02.849Z,8.50
2018-12-29T00:49:44.009Z,8.54
2018-12-29T00:52:25.008Z,8.54
2018-12-29T00:55:05.352Z,8.54
2018-12-29T00:57:46.243Z,8.60
2018-12-29T01:00:26.687Z,8.69
2018-12-29T01:03:07.525Z,8.75
2018-12-29T01:05:48.809Z,8.79
2018-12-29T01:08:29.495Z,8.86
2018-12-29T01:11:10.275Z,8.90
2018-12-29T01:13:50.846Z,9.02
2018-12-29T01:16:31.683Z,9.17
2018-12-29T01:19:12.378Z,9.28
2018-12-29T01:21:52.322Z,9.32
2018-12-29T01:24:32.475Z,9.40
2018-12-29T01:27:13.164Z,9.50
2018-12-29T01:29:53.366Z,9.59
2018-12-29T01:32:33.964Z,9.59
2018-12-29T01:35:14.638Z,9.86
2018-12-29T01:37:55.008Z,10.23
2018-12-29T01:40:36.297Z,10.64
2018-12-29T01:43:16.891Z,10.98
2018-12-29T01:45:57.456Z,11.30
2018-12-29T01:48:37.890Z,11.46
2018-12-29T01:51:19.141Z,11.58
2018-12-29T01:53:59.362Z,11.63
2018-12-29T01:56:40.011Z,11.69
2018-12-29T01:59:21.006Z,11.77
2018-12-29T02:02:02.030Z,11.89
2018-12-29T02:04:42.055Z,12.08
2018-12-29T02:07:22.942Z,12.23
2018-12-29T02:10:03.258Z,12.43
2018-12-29T02:12:44.368Z,12.56
2018-12-29T02:15:25.028Z,12.65
2018-12-29T02:18:05.157Z,13.02
2018-12-29T02:20:45.419Z,13.74
2018-12-29T02:23:26.543Z,14.44
2018-12-29T02:26:07.128Z,15.07
2018-12-29T02:28:48.040Z,15.65
2018-12-29T02:31:28.728Z,16.31
2018-12-29T02:34:09.614Z,16.87
2018-12-29T02:36:50.259Z,17.15
2018-12-29T02:39:31.214Z,17.67
2018-12-29T02:42:11.728Z,18.02
2018-12-29T02:44:52.493Z,18.34
2018-12-29T02:47:33.566Z,18.71
2018-12-29T02:50:14.733Z,19.03
2018-12-29T02:52:56.104Z,19.31
2018-12-29T02:55:37.190Z,19.60
2018-12-29T02:58:18.569Z,19.90
2018-12-29T03:00:58.892Z,20.13
2018-12-29T03:03:39.962Z,20.21
2018-12-29T03:06:20.569Z,20.31
2018-12-29T03:09:01.438Z,20.45
2018-12-29T03:11:42.725Z,20.52
2018-12-29T03:14:23.486Z,20.84
2018-12-29T03:17:03.940Z,20.41
2018-12-29T03:19:44.137Z,20.64
2018-12-29T03:22:24.858Z,20.89
2018-12-29T03:25:06.252Z,21.25
2018-12-29T03:27:46.887Z,21.01
2018-12-29T03:30:27.595Z,21.18
2018-12-29T03:33:07.848Z,21.56
2018-12-29T03:35:48.700Z,21.38
2018-12-29T03:38:28.644Z,21.61
2018-12-29T03:41:09.255Z,21.72
2018-12-29T03:43:49.173Z,21.65
2018-12-29T03:46:30.406Z,22.17
2018-12-29T03:49:11.282Z,22.39
2018-12-29T03:51:52.507Z,22.67
2018-12-29T03:54:32.536Z,22.85
2018-12-29T03:57:13.325Z,22.16
2018-12-29T03:59:53.947Z,22.49
2018-12-29T04:02:34.570Z,22.72
2018-12-29T04:05:14.496Z,22.84
2018-12-29T04:07:55.261Z,22.85
2018-12-29T04:10:36.515Z,22.91
2018-12-29T04:13:17.211Z,22.77
2018-12-29T04:15:58.205Z,22.84
2018-12-29T04:18:38.862Z,22.83
2018-12-29T04:21:20.027Z,22.63
2018-12-29T04:24:00.338Z,22.46
2018-12-29T04:29:22.370Z,22.52
2018-12-29T04:32:03.534Z,22.64
2018-12-29T04:34:44.905Z,22.93
2018-12-29T04:37:25.880Z,22.87
2018-12-29T04:40:06.379Z,22.81
2018-12-29T04:42:47.407Z,22.73
2018-12-29T04:45:28.341Z,22.61
2018-12-29T04:48:09.689Z,22.80
2018-12-29T04:50:49.684Z,23.09
2018-12-29T04:53:30.080Z,22.55
2018-12-29T04:56:10.367Z,22.78
2018-12-29T04:58:51.302Z,23.15
2018-12-29T05:01:31.613Z,23.52
2018-12-29T05:04:12.567Z,23.40
2018-12-29T05:06:53.415Z,23.27
2018-12-29T05:09:33.392Z,23.46
2018-12-29T05:12:13.842Z,23.14
2018-12-29T05:14:53.737Z,23.44
2018-12-29T05:17:34.603Z,23.42
2018-12-29T05:20:15.047Z,23.49
2018-12-29T05:22:55.607Z,23.23
2018-12-29T05:25:36.752Z,23.35
2018-12-29T05:28:17.185Z,23.67
2018-12-29T05:30:58.569Z,23.46
2018-12-29T05:33:39.558Z,23.53
2018-12-29T05:36:20.535Z,23.74
2018-12-29T05:39:01.199Z,23.77
2018-12-29T05:41:42.260Z,23.84
2018-12-29T05:44:23.237Z,23.95
2018-12-29T05:47:04.106Z,24.12
2018-12-29T05:49:44.017Z,24.17
2018-12-29T05:52:24.660Z,24.46
2018-12-29T05:55:05.724Z,23.93
2018-12-29T05:57:46.691Z,23.94
2018-12-29T06:00:27.132Z,23.95
2018-12-29T06:03:07.248Z,23.79
2018-12-29T06:05:47.123Z,24.12
2018-12-29T06:08:27.214Z,24.23
2018-12-29T06:11:07.603Z,24.36
2018-12-29T06:13:47.503Z,24.64
2018-12-29T06:16:28.058Z,24.73
2018-12-29T06:19:08.817Z,24.80
2018-12-29T06:21:49.814Z,24.79
2018-12-29T06:24:30.534Z,24.63
2018-12-29T06:27:11.448Z,24.44
2018-12-29T06:29:52.173Z,24.60
2018-12-29T06:32:33.378Z,24.67
2018-12-29T06:35:14.254Z,24.66
2018-12-29T06:37:55.246Z,24.27
2018-12-29T06:40:36.177Z,24.88
2018-12-29T06:43:17.132Z,24.57
2018-12-29T06:45:57.970Z,24.65
2018-12-29T06:48:38.821Z,24.42
2018-12-29T06:51:19.521Z,24.60
2018-12-29T06:54:01.133Z,24.43
2018-12-29T06:56:42.363Z,24.50
2018-12-29T06:59:23.778Z,24.80
2018-12-29T07:02:04.645Z,24.89
2018-12-29T07:04:45.802Z,24.97
2018-12-29T07:07:26.724Z,25.03
2018-12-29T07:10:07.425Z,25.27
2018-12-29T07:12:48.329Z,25.37
2018-12-29T07:15:29.388Z,25.33
2018-12-29T07:18:09.943Z,25.09
2018-12-29T07:20:50.612Z,25.40
2018-12-29T07:23:31.181Z,25.55
2018-12-29T07:26:11.622Z,25.47
2018-12-29T07:28:51.975Z,25.53
2018-12-29T07:31:32.863Z,25.71
2018-12-29T07:34:13.684Z,25.60
2018-12-29T07:36:54.085Z,25.34
2018-12-29T07:39:34.734Z,24.94
2018-12-29T07:42:16.042Z,25.32
2018-12-29T07:44:56.659Z,25.21
2018-12-29T07:47:37.607Z,25.29
2018-12-29T07:50:17.921Z,25.16
2018-12-29T07:52:59.525Z,24.97
2018-12-29T07:55:40.493Z,24.88
2018-12-29T07:58:21.156Z,24.82
2018-12-29T08:01:02.406Z,24.92
2018-12-29T08:03:43.330Z,24.57
2018-12-29T08:06:23.840Z,24.63
2018-12-29T08:09:04.966Z,24.60
2018-12-29T08:11:45.749Z,24.80
2018-12-29T08:14:27.223Z,24.96
2018-12-29T08:17:08.293Z,25.02
2018-12-29T08:19:48.843Z,25.01
2018-12-29T08:22:30.416Z,24.80
2018-12-29T08:25:11.707Z,24.59
2018-12-29T08:27:53.880Z,24.57
2018-12-29T08:30:34.413Z,24.52
2018-12-29T08:33:15.137Z,24.66
2018-12-29T08:35:55.641Z,24.74
2018-12-29T08:38:36.128Z,24.88
2018-12-29T08:41:17.759Z,24.73
2018-12-29T08:43:57.170Z,24.78
2018-12-29T08:46:37.762Z,25.04
2018-12-29T08:49:17.860Z,25.30
2018-12-29T08:51:58.031Z,25.25
2018-12-29T08:54:38.198Z,25.54
2018-12-29T08:57:18.304Z,25.28
2018-12-29T08:59:58.967Z,25.40
2018-12-29T09:02:39.429Z,25.30
2018-12-29T09:05:19.767Z,25.07
2018-12-29T09:08:00.851Z,24.93
2018-12-29T09:10:42.771Z,25.13
2018-12-29T09:13:23.213Z,25.10
2018-12-29T09:16:03.621Z,25.19
2018-12-29T09:18:49.729Z,25.14
2018-12-29T09:21:25.207Z,25.01
2018-12-29T09:24:05.842Z,24.87
2018-12-29T09:26:46.337Z,25.06
2018-12-29T09:29:26.994Z,25.07
2018-12-29T09:32:08.301Z,25.06
2018-12-29T09:34:50.266Z,24.86
2018-12-29T09:37:30.727Z,24.95
2018-12-29T09:40:11.418Z,24.90
2018-12-29T09:42:52.377Z,25.00
2018-12-29T09:45:32.630Z,25.33
2018-12-29T09:48:13.309Z,25.16
2018-12-29T09:50:53.856Z,25.16
2018-12-29T09:53:34.134Z,24.90
2018-12-29T09:56:15.059Z,24.53
2018-12-29T09:58:56.055Z,24.46
2018-12-29T10:01:37.049Z,24.68
2018-12-29T10:04:18.039Z,24.54
2018-12-29T10:06:58.772Z,24.43
2018-12-29T10:09:40.672Z,24.18
2018-12-29T10:12:21.811Z,23.95
2018-12-29T10:15:02.206Z,23.71
2018-12-29T10:17:43.481Z,23.49
2018-12-29T10:20:24.627Z,23.25
2018-12-29T10:23:05.672Z,22.96
2018-12-29T10:25:46.397Z,22.76
2018-12-29T10:28:27.311Z,22.66
2018-12-29T10:33:48.532Z,22.38
2018-12-29T10:36:29.104Z,22.29
2018-12-29T10:39:09.737Z,22.26
2018-12-29T10:41:50.533Z,22.19
2018-12-29T10:44:31.395Z,22.27
2018-12-29T10:47:12.352Z,22.24
2018-12-29T10:49:53.631Z,22.11
2018-12-29T10:52:33.995Z,21.97
2018-12-29T10:55:14.775Z,21.81
2018-12-29T10:57:55.454Z,21.63
2018-12-29T11:00:36.205Z,21.39
2018-12-29T11:03:17.150Z,21.23
2018-12-29T11:05:58.012Z,20.94
2018-12-29T11:08:38.488Z,20.75
2018-12-29T11:11:19.514Z,20.55
2018-12-29T11:14:00.775Z,20.33
2018-12-29T11:16:41.274Z,20.11
2018-12-29T11:19:21.996Z,19.93
2018-12-29T11:22:02.788Z,19.80
2018-12-29T11:24:43.666Z,19.59
2018-12-29T11:27:24.842Z,19.39
2018-12-29T11:30:05.488Z,19.21
2018-12-29T11:32:46.101Z,18.96
2018-12-29T11:35:28.904Z,18.77
2018-12-29T11:38:08.401Z,18.62
2018-12-29T11:40:49.944Z,18.42
2018-12-29T11:43:30.472Z,18.37
2018-12-29T11:46:11.342Z,18.13
2018-12-29T11:48:52.499Z,17.93
2018-12-29T11:51:32.782Z,17.76
2018-12-29T11:54:13.563Z,17.62
2018-12-29T11:56:53.895Z,17.44
2018-12-29T11:59:34.465Z,17.34
2018-12-29T12:02:15.465Z,17.27
2018-12-29T12:04:57.042Z,17.12
2018-12-29T12:07:38.274Z,17.00
2018-12-29T12:10:18.993Z,16.86
2018-12-29T12:12:59.933Z,16.76
2018-12-29T12:15:40.527Z,16.73
2018-12-29T12:18:21.424Z,16.67
2018-12-29T12:21:02.549Z,16.53
2018-12-29T12:23:43.414Z,16.46
2018-12-29T12:26:24.332Z,16.34
2018-12-29T12:29:04.948Z,16.25
2018-12-29T12:31:46.820Z,16.18
2018-12-29T12:34:27.269Z,16.09
2018-12-29T12:37:07.981Z,16.00
2018-12-29T12:39:48.817Z,15.92
2018-12-29T12:42:29.793Z,15.88
2018-12-29T12:45:10.274Z,15.78
2018-12-29T12:47:54.379Z,15.69
2018-12-29T12:50:34.976Z,15.62
2018-12-29T12:53:15.298Z,15.58
2018-12-29T12:55:56.004Z,15.50
2018-12-29T12:58:37.461Z,15.45
2018-12-29T13:01:19.053Z,15.33
2018-12-29T13:03:59.662Z,15.27
2018-12-29T13:06:40.649Z,15.23
2018-12-29T13:09:21.511Z,15.20
2018-12-29T13:12:02.375Z,15.16
2018-12-29T13:14:43.205Z,15.06
2018-12-29T13:17:23.719Z,14.97
2018-12-29T13:20:05.080Z,14.90
2018-12-29T13:22:45.884Z,14.83
2018-12-29T13:25:26.501Z,14.80
2018-12-29T13:28:06.735Z,14.87
2018-12-29T13:30:48.142Z,14.78
2018-12-29T13:33:29.048Z,14.68
2018-12-29T13:36:09.720Z,14.59
2018-12-29T13:41:41.183Z,14.50
2018-12-29T13:44:22.406Z,14.35
2018-12-29T13:47:03.022Z,14.24
2018-12-29T13:49:44.015Z,14.15
2018-12-29T13:52:24.464Z,14.04
2018-12-29T13:55:05.323Z,14.03
2018-12-29T13:57:46.550Z,14.03
2018-12-29T14:00:27.529Z,13.97
2018-12-29T14:03:08.568Z,13.93
2018-12-29T14:05:49.010Z,13.87
2018-12-29T14:08:30.093Z,13.79
2018-12-29T14:11:11.182Z,13.75
2018-12-29T14:13:52.436Z,13.65
2018-12-29T14:16:33.293Z,13.53
2018-12-29T14:19:16.812Z,13.42
2018-12-29T14:21:57.708Z,13.39
2018-12-29T14:24:38.815Z,13.35
2018-12-29T14:27:19.680Z,13.29
2018-12-29T14:30:00.619Z,13.28
2018-12-29T14:32:48.864Z,13.18
2018-12-29T14:35:39.884Z,13.28
2018-12-29T14:41:15.334Z,13.25
2018-12-29T14:44:06.261Z,13.20
2018-12-29T14:46:49.030Z,13.24
2018-12-29T14:49:29.528Z,13.21
2018-12-29T14:52:09.615Z,13.16
2018-12-29T14:54:49.783Z,13.13
2018-12-29T14:57:30.120Z,13.07
2018-12-29T15:00:10.987Z,12.99
2018-12-29T15:02:51.440Z,12.95
2018-12-29T15:05:31.520Z,12.90
2018-12-29T15:08:12.069Z,12.79
2018-12-29T15:10:52.058Z,12.75
2018-12-29T15:13:32.206Z,12.72
2018-12-29T15:16:12.364Z,12.64
2018-12-29T15:18:52.621Z,12.72
2018-12-29T15:21:32.765Z,12.87
2018-12-29T15:24:12.800Z,12.84
2018-12-29T15:26:53.144Z,12.72
2018-12-29T15:29:34.278Z,12.74
2018-12-29T15:32:14.993Z,12.61
2018-12-29T15:34:55.139Z,12.53
2018-12-29T15:37:35.078Z,12.55
2018-12-29T15:40:15.299Z,12.54
2018-12-29T15:42:57.748Z,12.47
2018-12-29T15:45:38.127Z,12.39
2018-12-29T17:34:18.390Z,11.40
2018-12-29T17:37:05.961Z,11.33
2018-12-29T17:39:55.048Z,11.33
2018-12-29T17:42:42.798Z,11.26
2018-12-29T17:45:29.478Z,11.26
2018-12-29T17:48:14.162Z,11.26
2018-12-29T17:50:54.487Z,11.24
2018-12-29T17:53:36.458Z,11.17
2018-12-29T17:56:17.296Z,11.10
2018-12-29T17:58:58.574Z,11.06
2018-12-29T18:01:39.330Z,11.06
2018-12-29T18:04:19.915Z,11.02
2018-12-29T18:07:00.463Z,11.03
2018-12-29T18:09:40.936Z,11.05
2018-12-29T18:12:21.377Z,11.05
2018-12-29T18:15:02.247Z,11.05
2018-12-29T18:17:43.260Z,11.05
2018-12-29T18:20:24.339Z,11.04
2018-12-29T18:23:04.494Z,11.06
2018-12-29T18:25:46.506Z,11.03
2018-12-29T18:28:27.208Z,11.06
2018-12-29T18:31:07.786Z,11.03
2018-12-29T18:33:48.249Z,11.03
2018-12-29T18:36:29.108Z,11.04
2018-12-29T18:39:09.921Z,11.02
2018-12-29T18:41:50.549Z,11.01
2018-12-29T18:44:31.383Z,10.99
2018-12-29T18:47:11.322Z,10.97
2018-12-29T18:49:51.592Z,10.91
2018-12-29T18:52:33.606Z,10.91
2018-12-29T18:55:13.957Z,10.86
2018-12-29T18:57:54.676Z,10.78
2018-12-29T19:00:35.098Z,10.79
2018-12-29T19:03:16.021Z,10.76
2018-12-29T19:05:57.152Z,10.76
2018-12-29T19:08:38.487Z,10.72
2018-12-29T19:11:19.407Z,10.72
2018-12-29T19:14:00.385Z,10.74
2018-12-29T19:16:41.333Z,10.74
2018-12-29T19:19:22.903Z,10.74
2018-12-29T19:22:04.163Z,10.74
2018-12-29T19:24:44.812Z,10.75
2018-12-29T19:27:26.100Z,10.76
2018-12-29T19:30:07.145Z,10.77
2018-12-29T19:32:50.812Z,10.74
2018-12-29T19:35:31.431Z,10.76
2018-12-29T19:38:12.211Z,10.81
2018-12-29T19:40:53.443Z,10.75
2018-12-29T19:43:33.842Z,10.74
2018-12-29T19:46:15.033Z,10.74
2018-12-29T19:48:55.690Z,10.65
2018-12-29T19:51:36.783Z,10.60
2018-12-29T19:54:17.632Z,10.61
2018-12-29T19:56:58.324Z,10.59
2018-12-29T19:59:39.014Z,10.54
2018-12-29T20:02:19.680Z,10.52
2018-12-29T20:05:00.291Z,10.51
2018-12-29T20:07:41.479Z,10.48
2018-12-29T20:10:22.405Z,10.42
2018-12-29T20:13:03.416Z,10.41
2018-12-29T20:15:44.010Z,10.41
2018-12-29T20:18:24.968Z,10.42
2018-12-29T20:21:06.134Z,10.39
2018-12-29T20:23:47.204Z,10.38
2018-12-29T20:26:27.382Z,10.32
2018-12-29T20:29:09.127Z,10.29
2018-12-29T20:31:50.102Z,10.28
2018-12-29T20:34:31.372Z,10.28
2018-12-29T20:37:11.796Z,10.26
2018-12-29T20:39:52.464Z,10.31
2018-12-29T20:42:32.618Z,10.38
2018-12-29T20:45:13.139Z,10.39
2018-12-29T20:47:53.923Z,10.39
2018-12-29T20:50:34.274Z,10.44
2018-12-29T20:53:14.949Z,10.47
2018-12-29T20:55:55.644Z,10.46
2018-12-29T20:58:36.635Z,10.49
2018-12-29T21:01:17.928Z,10.50
2018-12-29T21:03:58.733Z,10.49
2018-12-29T21:06:39.171Z,10.54
2018-12-29T21:09:19.121Z,10.58
2018-12-29T21:11:59.767Z,10.62
2018-12-29T21:14:40.322Z,10.62
2018-12-29T21:17:20.847Z,10.62
2018-12-29T21:20:01.415Z,10.64
2018-12-29T21:22:41.750Z,10.58
2018-12-29T21:25:22.654Z,10.65
2018-12-29T21:28:02.455Z,10.64
2018-12-29T21:30:43.256Z,10.68
2018-12-29T21:33:24.335Z,10.63
2018-12-29T21:36:05.123Z,10.49
2018-12-29T21:38:45.533Z,10.41
2018-12-29T21:41:26.409Z,10.35
2018-12-29T21:44:07.410Z,10.33
2018-12-29T21:46:48.649Z,10.40
2018-12-29T21:49:29.073Z,10.38
2018-12-29T21:52:09.930Z,10.38
2018-12-29T21:54:50.888Z,10.29
2018-12-29T21:57:31.560Z,10.22
2018-12-29T22:00:12.092Z,10.22
2018-12-29T22:02:53.281Z,10.24
2018-12-29T22:05:34.273Z,10.22
2018-12-29T22:08:14.539Z,10.19
2018-12-29T22:10:55.044Z,10.09
2018-12-29T22:13:35.455Z,10.00
2018-12-29T22:16:15.841Z,9.99
2018-12-29T22:18:56.963Z,10.04
2018-12-29T22:21:38.260Z,10.05
2018-12-29T22:24:19.245Z,10.10
2018-12-29T22:26:59.924Z,10.06
2018-12-29T22:29:40.600Z,10.08
2018-12-29T22:32:21.296Z,10.10
2018-12-29T22:35:01.805Z,10.03
2018-12-29T22:37:42.775Z,10.01
2018-12-29T22:40:23.447Z,9.99
2018-12-29T22:43:04.641Z,10.00
2018-12-29T22:45:45.495Z,10.10
2018-12-29T22:48:26.045Z,10.16
2018-12-29T22:51:06.653Z,10.14
2018-12-29T22:53:47.311Z,10.02
2018-12-29T22:56:27.566Z,10.04
2018-12-29T22:59:08.226Z,9.99
2018-12-29T23:01:48.583Z,9.90
2018-12-29T23:04:29.127Z,9.82
2018-12-29T23:07:09.899Z,9.73
2018-12-29T23:09:50.127Z,9.68
2018-12-29T23:12:30.839Z,9.56
2018-12-29T23:15:11.137Z,9.50
2018-12-29T23:17:52.059Z,9.52
2018-12-29T23:20:32.734Z,9.53
2018-12-29T23:23:12.717Z,9.55
2018-12-29T23:25:53.565Z,9.55
2018-12-29T23:28:34.078Z,9.55
2018-12-29T23:31:15.033Z,9.54
2018-12-29T23:33:55.913Z,9.51
2018-12-29T23:36:37.603Z,9.51
2018-12-29T23:39:18.096Z,9.51
2018-12-29T23:41:58.730Z,9.54
2018-12-29T23:44:39.697Z,9.56
2018-12-29T23:47:19.966Z,9.53
2018-12-29T23:50:01.295Z,9.60
2018-12-29T23:52:41.544Z,9.69
2018-12-29T23:55:22.242Z,9.61
2018-12-29T23:58:03.377Z,9.56
